createdAt,value
2024-02-15T00:04:04.865Z,101145.25
2024-02-15T00:09:07.043Z,101148.78
2024-02-15T00:14:09.445Z,101147.91
2024-02-15T00:19:11.956Z,101154.03
2024-02-15T00:24:14.140Z,101161.16
2024-02-15T00:29:16.472Z,101151.44
2024-02-15T00:34:18.967Z,101145.16
2024-02-15T00:39:21.555Z,101149.66
2024-02-15T00:44:23.659Z,101146.06
2024-02-15T00:49:29.467Z,101135.59
2024-02-15T00:54:31.913Z,101137.25
2024-02-15T00:59:37.518Z,101133.59
2024-02-15T01:04:39.552Z,101136.38
2024-02-15T01:09:41.778Z,101135.38
2024-02-15T01:14:45.197Z,101132.00
2024-02-15T01:19:47.306Z,101128.69
2024-02-15T01:24:49.404Z,101126.56
2024-02-15T01:29:51.473Z,101116.91
2024-02-15T01:34:55.974Z,101127.41
2024-02-15T01:39:58.226Z,101118.59
2024-02-15T01:45:00.420Z,101120.50
2024-02-15T01:50:02.539Z,101115.06
2024-02-15T01:55:09.456Z,101112.28
2024-02-15T02:00:14.283Z,101107.97
2024-02-15T02:05:16.364Z,101107.88
2024-02-15T02:10:19.870Z,101096.41
2024-02-15T02:15:22.030Z,101098.25
2024-02-15T02:20:24.935Z,101083.94
2024-02-15T02:25:30.050Z,101073.44
2024-02-15T02:30:32.233Z,101065.53
2024-02-15T02:35:34.769Z,101058.63
2024-02-15T02:40:37.501Z,101052.47
2024-02-15T02:45:39.620Z,101038.84
2024-02-15T02:50:41.810Z,101050.34
2024-02-15T02:55:44.077Z,101041.59
2024-02-15T03:00:46.284Z,101041.44
2024-02-15T03:05:48.454Z,101043.19
2024-02-15T03:10:50.774Z,101023.00
2024-02-15T03:15:52.831Z,101024.69
2024-02-15T03:20:55.007Z,101032.63
2024-02-15T03:25:57.246Z,101025.50
2024-02-15T03:31:01.961Z,101022.00
2024-02-15T03:36:04.511Z,101019.34
2024-02-15T03:41:07.162Z,101007.84
2024-02-15T03:46:13.773Z,101011.44
2024-02-15T03:51:24.735Z,101017.47
2024-02-15T03:56:26.676Z,101017.59
2024-02-15T04:01:28.672Z,101020.13
2024-02-15T04:06:33.363Z,101019.53
2024-02-15T04:11:35.602Z,101020.13
2024-02-15T04:16:39.359Z,101024.59
2024-02-15T04:21:41.621Z,101017.53
2024-02-15T04:26:43.733Z,101018.28
2024-02-15T04:31:45.683Z,101029.91
2024-02-15T04:36:52.370Z,101034.31
2024-02-15T04:41:55.052Z,101027.25
2024-02-15T04:46:58.817Z,101028.22
2024-02-15T04:52:03.821Z,101021.13
2024-02-15T04:57:08.385Z,101015.72
2024-02-15T05:02:11.328Z,100993.41
2024-02-15T05:07:16.829Z,100982.88
2024-02-15T05:12:31.193Z,100978.50
2024-02-15T05:17:35.380Z,100980.28
2024-02-15T05:22:38.064Z,100972.53
2024-02-15T05:27:40.070Z,100966.06
2024-02-15T05:32:47.105Z,100968.72
2024-02-15T05:37:49.173Z,100963.34
2024-02-15T05:42:57.406Z,100965.28
2024-02-15T05:48:00.281Z,100959.97
2024-02-15T05:53:03.110Z,100962.63
2024-02-15T05:58:05.490Z,100959.00
2024-02-15T06:03:07.891Z,100955.53
2024-02-15T06:08:10.295Z,100956.34
2024-02-15T06:13:12.405Z,100960.06
2024-02-15T06:18:15.863Z,100965.28
2024-02-15T06:23:19.677Z,100959.00
2024-02-15T06:28:41.189Z,100961.50
2024-02-15T06:34:02.550Z,100963.34
2024-02-15T06:39:23.382Z,100966.84
2024-02-15T06:44:25.599Z,100971.25
2024-02-15T06:49:27.661Z,100966.00
2024-02-15T06:54:30.279Z,100961.56
2024-02-15T06:59:33.382Z,100964.34
2024-02-15T07:04:35.664Z,100964.34
2024-02-15T07:09:38.049Z,100955.53
2024-02-15T07:14:40.383Z,100943.06
2024-02-15T07:19:46.368Z,100953.31
2024-02-15T07:24:48.368Z,100955.53
2024-02-15T07:29:50.501Z,100951.94
2024-02-15T07:34:52.907Z,100949.44
2024-02-15T07:39:55.043Z,100948.28
2024-02-15T07:44:57.005Z,100953.69
2024-02-15T07:49:59.952Z,100952.56
2024-02-15T07:55:03.176Z,100949.28
2024-02-15T08:00:11.707Z,100947.34
2024-02-15T08:05:15.873Z,100943.75
2024-02-15T08:10:18.168Z,100952.78
2024-02-15T08:15:20.189Z,100941.94
2024-02-15T08:20:25.314Z,100942.09
2024-02-15T08:25:27.305Z,100944.69
2024-02-15T08:30:29.249Z,100932.44
2024-02-15T08:35:31.340Z,100946.50
2024-02-15T08:40:33.397Z,100936.00
2024-02-15T08:45:36.901Z,100937.75
2024-02-15T08:50:38.927Z,100936.84
2024-02-15T08:55:41.078Z,100928.81
2024-02-15T09:00:46.201Z,100934.19
2024-02-15T09:05:48.325Z,100926.16
2024-02-15T09:10:54.247Z,100921.72
2024-02-15T09:15:56.517Z,100924.25
2024-02-15T09:20:58.554Z,100932.44
2024-02-15T09:26:00.772Z,100929.84
2024-02-15T09:31:03.060Z,100926.44
2024-02-15T09:36:05.640Z,100916.50
2024-02-15T09:41:09.214Z,100924.38
2024-02-15T09:46:11.612Z,100922.50
2024-02-15T09:51:14.470Z,100923.72
2024-02-15T09:56:16.879Z,100921.50
2024-02-15T10:01:23.413Z,100916.19
2024-02-15T10:06:25.611Z,100921.50
2024-02-15T10:11:27.797Z,100909.69
2024-02-15T10:16:30.640Z,100914.94
2024-02-15T10:21:34.955Z,100907.94
2024-02-15T10:26:37.697Z,100909.69
2024-02-15T10:31:42.982Z,100910.81
2024-02-15T10:36:45.090Z,100912.88
2024-02-15T10:41:54.691Z,100910.59
2024-02-15T10:46:56.743Z,100895.31
2024-02-15T10:52:05.667Z,100899.69
2024-02-15T10:57:09.602Z,100892.78
2024-02-15T11:02:36.185Z,100888.41
2024-02-15T11:07:38.705Z,100880.75
2024-02-15T11:12:42.979Z,100874.56
2024-02-15T11:17:50.654Z,100870.91
2024-02-15T11:22:58.888Z,100872.59
2024-02-15T11:28:29.306Z,100864.44
2024-02-15T11:33:32.214Z,100854.38
2024-02-15T11:38:37.961Z,100846.50
2024-02-15T11:44:06.134Z,100840.44
2024-02-15T11:49:08.943Z,100842.03
2024-02-15T11:54:13.425Z,100831.41
2024-02-15T11:59:30.967Z,100825.88
2024-02-15T12:04:52.001Z,100820.16
2024-02-15T12:10:19.090Z,100813.75
2024-02-15T12:15:39.650Z,100800.53
2024-02-15T12:20:41.803Z,100788.03
2024-02-15T12:25:43.859Z,100794.38
2024-02-15T12:30:46.096Z,100779.28
2024-02-15T12:35:48.343Z,100769.38
2024-02-15T12:40:51.428Z,100762.25
2024-02-15T12:45:53.668Z,100761.84
2024-02-15T12:50:56.358Z,100755.44
2024-02-15T12:55:58.547Z,100740.16
2024-02-15T13:01:01.750Z,100739.38
2024-02-15T13:06:04.225Z,100730.44
2024-02-15T13:11:06.455Z,100726.69
2024-02-15T13:16:09.045Z,100726.09
2024-02-15T13:21:11.873Z,100717.09
2024-02-15T13:26:14.846Z,100712.72
2024-02-15T13:31:17.026Z,100710.16
2024-02-15T13:36:19.016Z,100693.19
2024-02-15T13:41:21.141Z,100675.44
2024-02-15T13:46:23.315Z,100675.44
2024-02-15T13:51:26.105Z,100665.78
2024-02-15T13:56:28.650Z,100664.13
2024-02-15T14:01:30.578Z,100656.72
2024-02-15T14:06:32.686Z,100637.47
2024-02-15T14:11:35.025Z,100621.47
2024-02-15T14:16:36.984Z,100617.97
2024-02-15T14:21:40.163Z,100627.56
2024-02-15T14:26:45.363Z,100613.09
2024-02-15T14:32:06.086Z,100631.91
2024-02-15T14:37:08.422Z,100629.50
2024-02-15T14:47:19.565Z,100629.81
2024-02-15T14:52:21.764Z,100622.56
2024-02-15T14:57:27.731Z,100622.88
2024-02-15T15:02:31.885Z,100615.59
2024-02-15T15:07:52.446Z,100626.44
2024-02-15T15:12:54.546Z,100597.88
2024-02-15T15:17:57.313Z,100593.09
2024-02-15T15:23:01.849Z,100592.00
2024-02-15T15:28:08.737Z,100590.28
2024-02-15T15:33:10.767Z,100577.69
2024-02-15T15:38:13.092Z,100574.34
2024-02-15T15:43:15.550Z,100563.63
2024-02-15T15:48:17.648Z,100555.47
2024-02-15T15:53:20.994Z,100544.06
2024-02-15T15:58:25.464Z,100543.22
2024-02-15T16:03:28.674Z,100540.69
2024-02-15T16:08:30.754Z,100527.59
2024-02-15T16:13:32.773Z,100513.25
2024-02-15T16:18:34.838Z,100497.78
2024-02-15T16:23:36.999Z,100487.69
2024-02-15T16:28:46.855Z,100476.03
2024-02-15T16:33:49.698Z,100473.00
2024-02-15T16:38:52.068Z,100478.94
2024-02-15T16:43:58.203Z,100478.31
2024-02-15T16:49:00.724Z,100492.38
2024-02-15T16:54:06.568Z,100505.22
2024-02-15T16:59:08.867Z,100524.28
2024-02-15T17:04:11.097Z,100540.00
2024-02-15T17:09:13.409Z,100553.19
2024-02-15T17:14:15.920Z,100534.06
2024-02-15T17:19:18.235Z,100547.56
2024-02-15T17:24:20.657Z,100538.13
2024-02-15T17:29:22.708Z,100536.56
2024-02-15T17:34:25.563Z,100526.97
2024-02-15T17:39:27.713Z,100516.88
2024-02-15T17:44:29.700Z,100536.25
2024-02-15T17:49:32.174Z,100536.25
2024-02-15T17:54:34.208Z,100540.53
2024-02-15T17:59:36.302Z,100547.19
2024-02-15T18:04:38.619Z,100544.84
2024-02-15T18:09:40.753Z,100535.94
2024-02-15T18:14:43.934Z,100542.03
2024-02-15T18:19:46.269Z,100543.72
2024-02-15T18:24:48.282Z,100529.88
2024-02-15T18:29:50.168Z,100521.97
2024-02-15T18:34:52.141Z,100517.66
2024-02-15T18:39:54.131Z,100518.78
2024-02-15T18:44:56.183Z,100520.75
2024-02-15T18:50:00.454Z,100509.63
2024-02-15T18:55:02.978Z,100499.00
2024-02-15T19:00:15.992Z,100480.06
2024-02-15T19:05:29.916Z,100476.47
2024-02-15T19:10:33.492Z,100468.63
2024-02-15T19:15:35.508Z,100486.34
2024-02-15T19:20:37.507Z,100492.16
2024-02-15T19:25:39.642Z,100482.94
2024-02-15T19:30:43.381Z,100476.72
2024-02-15T19:35:46.460Z,100469.06
2024-02-15T19:40:48.435Z,100465.31
2024-02-15T19:45:50.356Z,100462.28
2024-02-15T19:50:52.601Z,100457.75
2024-02-15T19:55:54.538Z,100456.81
2024-02-15T20:00:56.629Z,100450.66
2024-02-15T20:06:00.320Z,100451.56
2024-02-15T20:11:02.554Z,100444.13
2024-02-15T20:16:05.797Z,100435.94
2024-02-15T20:21:11.635Z,100420.63
2024-02-15T20:26:14.412Z,100421.53
2024-02-15T20:31:18.729Z,100413.94
2024-02-15T20:36:21.711Z,100417.97
2024-02-15T20:41:28.220Z,100424.97
2024-02-15T20:46:31.155Z,100419.25
2024-02-15T20:51:36.874Z,100429.81
2024-02-15T20:56:40.357Z,100430.84
2024-02-15T21:01:42.641Z,100429.97
2024-02-15T21:06:44.882Z,100432.72
2024-02-15T21:11:47.549Z,100428.53
2024-02-15T21:16:49.751Z,100422.44
2024-02-15T21:21:51.815Z,100415.94
2024-02-15T21:26:54.170Z,100416.28
2024-02-15T21:31:56.472Z,100404.63
2024-02-15T21:36:58.820Z,100407.91
2024-02-15T21:42:01.083Z,100410.47
2024-02-15T21:47:04.062Z,100397.72
2024-02-15T21:52:06.389Z,100391.66
2024-02-15T21:57:08.591Z,100398.13
2024-02-15T22:02:31.232Z,100386.56
2024-02-15T22:07:33.799Z,100387.44
2024-02-15T22:12:35.809Z,100375.94
2024-02-15T22:17:38.929Z,100392.38
2024-02-15T22:22:42.034Z,100393.56
2024-02-15T22:27:44.780Z,100402.41
2024-02-15T22:32:47.070Z,100395.22
2024-02-15T22:37:49.246Z,100397.94
2024-02-15T22:42:51.185Z,100392.81
2024-02-15T22:47:53.473Z,100408.06
2024-02-15T22:52:55.708Z,100400.88
2024-02-15T22:57:57.793Z,100391.66
2024-02-15T23:02:59.954Z,100381.59
2024-02-15T23:08:02.495Z,100376.03
2024-02-15T23:13:04.710Z,100375.34
2024-02-15T23:18:09.920Z,100377.25
2024-02-15T23:23:14.420Z,100372.69
2024-02-15T23:28:16.534Z,100381.38
2024-02-15T23:33:21.258Z,100371.94
2024-02-15T23:38:41.996Z,100370.38
2024-02-15T23:43:45.132Z,100369.13
2024-02-15T23:48:53.533Z,100366.47
2024-02-15T23:53:55.717Z,100364.31
2024-02-15T23:58:58.161Z,100368.41
